AirNav   TITAN Aviation Fuels
 
 490 users online  

NR42 Laughing Crow Airpark
Cherryville, North Carolina, USA

GOING TO CHERRYVILLE?


FAA INFORMATION EFFECTIVE 03 NOVEMBER 2022

Location

FAA Identifier: NR42
Lat/Long: 35-27-08.0000N 081-27-32.6200W
35-27.133333N 081-27.543667W
35.4522222,-81.4590611
(estimated)
Elevation: 962 ft. / 293 m (estimated)
From city: 6 miles NW of CHERRYVILLE, NC
Time zone: UTC -5 (UTC -4 during Daylight Saving Time)
Zip code: 28168

Airport Operations

Airport use: Private use. Permission required prior to landing
Activation date: 05/2015
Control tower: no
ARTCC: ATLANTA CENTER
FSS: RALEIGH FLIGHT SERVICE STATION
Attendance: UNATNDD
Wind indicator: yes
Segmented circle: no

Airport Communications

WX AWOS-3 at EHO (14 nm SW): 118.425 (704-487-0100)
WX AWOS-3 at IPJ (15 nm E): 119.675 (704-735-6954)
WX ASOS at HKY (18 nm N): 118.325 (828-322-2996)

Nearby radio navigation aids

VOR radial/distance  VOR name  Freq  Var
BZMr209/27.2BARRETTS MOUNTAIN VOR/DME113.7506W
CLTr307/29.4CHARLOTTE VOR/DME115.0005W
SPAr044/34.0SPARTANBURG VORTAC115.7002W
SUGr088/39.7SUGARLOAF MOUNTAIN VORTAC112.2002W

 
NDB name  Hdg/Dist  Freq  Var  ID
FIRST RIVER036/13.841706WSLP ... .-.. .--.
FIDDLERS153/18.639107WFIQ ..-. .. --.-
STONIA323/21.526006WGHJ --. .... .---

Airport Services

Runway Information

Runway 16/34

Dimensions: 1550 x 50 ft. / 472 x 15 m
Surface: turf
Runway edge lights: PERI
RUNWAY 16  RUNWAY 34
Traffic pattern: rightleft
Markings: basic, in good conditionbasic, in good condition
Obstructions: trees, 67 ft. from runwaytrees, 190 ft. from runway

Airport Ownership and Management from official FAA records

Ownership: Privately-owned
Owner: KIRKLAND L. JOHNSON
7157 HULL RD
CHERRYVILLE, NC 28021
Phone 704-435-2272
Manager: KIRKLAND L. JOHNSON
7157 HULL RD
CHERRYVILLE, NC 28021
Phone 704-435-2272

Airport Operational Statistics

Aircraft based on the field: 1
Single engine airplanes: 1
    
Aircraft operations: 10/year
100% local general aviation

Additional Remarks

FOR CD CTC CHARLOTTE APCH AT 704-359-0241.

Instrument Procedures

There are no published instrument procedures at NR42.

Some nearby airports with instrument procedures:

KEHO - Shelby-Cleveland County Regional Airport (14 nm SW)
KIPJ - Lincolnton-Lincoln County Regional Airport (15 nm E)
KHKY - Hickory Regional Airport (18 nm N)
KAKH - Gastonia Municipal Airport (21 nm SE)
KMRN - Foothills Regional Airport (23 nm N)
 
Loc | Ops | Rwys | IFR | FBO | Links
Com | Nav | Svcs | Stats | Notes
Aerial photo
No photo
 
Airport distance calculator
Flying to Laughing Crow Airpark? Find the distance to fly.

From to NR42

Sunrise and sunset
Times for 28-Nov-2022
 Local
(UTC-5)
 Zulu
(UTC)
Morning civil twilight06:4711:47
Sunrise07:1512:15
Sunset17:1322:13
Evening civil twilight17:4122:41

Current date and time
Zulu (UTC)  28-Nov-2022 07:42:59
Local (UTC-5)  28-Nov-2022 02:42:59
 
METAR
KEHO 
14nm SW 
280715Z AUTO 25004KT 10SM CLR 10/06 A2980 RMK AO2 T00960060
KIPJ 
14nm E 
280715Z AUTO 00000KT 10SM CLR 06/05 A2978 RMK AO2 T00610052
KHKY 
18nm N 
280653Z 28009G15KT 10SM SCT050 12/06 A2978 RMK AO2 SLP068 T01220056 $
KAKH 
21nm SE 
280654Z AUTO 25003KT 10SM CLR 10/06 A2978 RMK AO2 SLP082 T01000061
KMRN 
23nm N 
280715Z AUTO 28010G17KT 10SM BKN050 14/06 A2982 RMK AO2 T01370057
KFQD 
23nm W 
280715Z AUTO 22003KT 10SM SCT050 08/06 A2980 RMK AO2
TAF
KHKY 
18nm N 
280520Z 2806/2906 25004KT P6SM SKC FM281200 26003KT P6SM FEW250 FM281700 29005KT P6SM SCT024 FM282300 34003KT P6SM FEW250
NOTAMs
Click for the latest NOTAMs
NOTAMs are issued by the DoD/FAA and will open in a separate window not controlled by AirNav.

 

 
 

Would you like to see your business listed on this page?

 If your business provides an interesting product or service to pilots, flight crews, aircraft, or users of the Laughing Crow Airpark, you should consider listing it here.  To start the listing process, click on the button below
 
Add a business
 

Other Pages about Laughing Crow Airpark

Update a link
 
Copyright © AirNav, LLC. All rights reserved. Privacy Policy  Contact